Time;durP1;ratioP1;P1;durP2;ratioP2;P2;SDS_P1;SDS_P2;PMS_P1;PMS_P2;Temp;Humidity;BMP_temperature;BMP_pressure;BME280_temperature;BME280_humidity;BME280_pressure;Samples;Min_cycle;Max_cycle;Signal;HPM_P1;HPM_P2
2023/05/17 00:00:19;;;;;;;11.90;9.55;;;16.20;99.90;;;;;;5075790;28;20651;-71
2023/05/17 00:03:07;;;;;;;10.35;9.30;;;16.30;99.90;;;;;;5077826;28;20219;-74
2023/05/17 00:05:56;;;;;;;12.52;10.50;;;16.20;99.90;;;;;;5088549;28;20219;-74
2023/05/17 00:08:46;;;;;;;13.75;11.23;;;16.20;99.90;;;;;;5077351;28;20678;-72
2023/05/17 00:11:36;;;;;;;13.30;10.75;;;16.30;99.90;;;;;;5078158;28;20228;-71
2023/05/17 00:14:24;;;;;;;15.35;11.40;;;16.20;99.90;;;;;;5078783;28;20306;-70
2023/05/17 00:17:13;;;;;;;11.65;10.55;;;16.20;99.90;;;;;;5079748;28;20350;-70
2023/05/17 00:20:06;;;;;;;13.82;11.15;;;16.10;99.90;;;;;;5080576;28;20706;-70
2023/05/17 00:22:55;;;;;;;13.45;11.27;;;16.10;99.90;;;;;;5089959;28;20280;-70
2023/05/17 00:25:45;;;;;;;12.90;11.60;;;16.00;99.90;;;;;;5101323;28;20233;-70
2023/05/17 00:28:34;;;;;;;15.90;11.88;;;16.00;99.90;;;;;;5085113;28;20223;-70
2023/05/17 00:31:23;;;;;;;22.88;15.23;;;16.00;99.90;;;;;;5063502;28;20748;-71
2023/05/17 00:34:12;;;;;;;36.88;19.73;;;16.00;99.90;;;;;;5071821;28;20235;-72
2023/05/17 00:37:01;;;;;;;42.17;20.90;;;16.00;99.90;;;;;;5083609;28;20246;-72
2023/05/17 00:39:49;;;;;;;39.70;22.60;;;16.00;99.90;;;;;;5103841;28;20211;-71
2023/05/17 00:42:39;;;;;;;40.65;22.27;;;16.00;99.90;;;;;;5085494;28;20215;-72
2023/05/17 00:45:28;;;;;;;39.67;20.67;;;16.00;99.90;;;;;;5091523;28;20227;-71
2023/05/17 00:48:19;;;;;;;19.80;15.18;;;16.00;99.90;;;;;;5081304;28;20567;-74
2023/05/17 00:51:09;;;;;;;28.88;18.75;;;15.80;99.90;;;;;;5057269;28;20223;-72
2023/05/17 00:53:58;;;;;;;16.90;13.93;;;15.90;99.90;;;;;;5069690;28;20792;-72
2023/05/17 00:56:48;;;;;;;15.90;12.82;;;15.90;99.90;;;;;;5094337;28;20857;-73
2023/05/17 00:59:39;;;;;;;13.95;12.55;;;15.90;99.90;;;;;;5083697;28;20220;-72
2023/05/17 01:02:28;;;;;;;13.82;12.20;;;15.80;99.90;;;;;;5096089;28;20223;-72
2023/05/17 01:05:17;;;;;;;16.80;13.48;;;15.60;99.90;;;;;;5075498;28;20248;-73
2023/05/17 01:08:06;;;;;;;16.42;13.85;;;15.70;99.90;;;;;;5097574;28;20678;-73
2023/05/17 01:11:07;;;;;;;14.48;12.90;;;15.80;99.90;;;;;;5101408;27;20219;-71
2023/05/17 01:14:02;;;;;;;15.25;13.25;;;15.80;99.90;;;;;;5096414;27;20219;-74
2023/05/17 01:16:57;;;;;;;16.55;14.80;;;15.80;99.90;;;;;;5101298;28;20691;-74
2023/05/17 01:19:54;;;;;;;19.25;15.93;;;15.70;99.90;;;;;;5100549;28;20227;-74
2023/05/17 01:22:50;;;;;;;18.92;16.75;;;15.70;99.90;;;;;;5090980;28;20231;-74
2023/05/17 01:25:52;;;;;;;17.60;15.85;;;15.70;99.90;;;;;;5075523;28;20219;-77
2023/05/17 01:28:46;;;;;;;18.98;16.98;;;15.60;99.90;;;;;;5094747;28;20238;-76
2023/05/17 01:31:37;;;;;;;21.58;17.25;;;15.60;99.90;;;;;;5098421;28;20231;-75
2023/05/17 01:34:26;;;;;;;21.25;17.13;;;15.50;99.90;;;;;;5099002;28;20708;-75
2023/05/17 01:37:17;;;;;;;17.83;15.95;;;15.60;99.90;;;;;;5089903;28;20960;-74
2023/05/17 01:40:09;;;;;;;18.48;16.58;;;15.60;99.90;;;;;;5102812;28;20237;-75
2023/05/17 01:43:04;;;;;;;20.08;17.63;;;15.50;99.90;;;;;;5103002;27;20822;-72
2023/05/17 01:46:05;;;;;;;19.75;17.65;;;15.30;99.90;;;;;;5090979;28;20235;-74
2023/05/17 01:49:06;;;;;;;19.60;17.00;;;15.30;99.90;;;;;;5084861;28;20226;-74
2023/05/17 01:52:02;;;;;;;20.65;18.45;;;15.20;99.90;;;;;;5101289;28;20253;-74
2023/05/17 01:54:56;;;;;;;20.20;18.10;;;15.20;99.90;;;;;;5103340;28;20709;-76
2023/05/17 01:57:48;;;;;;;20.48;18.05;;;15.20;99.90;;;;;;5090307;28;20235;-75
2023/05/17 02:00:39;;;;;;;19.42;17.42;;;15.20;99.90;;;;;;5084653;28;20227;-75
2023/05/17 02:03:30;;;;;;;19.63;17.65;;;15.20;99.90;;;;;;5088490;28;20233;-75
2023/05/17 02:06:18;;;;;;;19.73;17.83;;;15.20;99.90;;;;;;5099563;27;20225;-75
2023/05/17 02:09:07;;;;;;;20.73;18.55;;;15.20;99.90;;;;;;5088918;28;20280;-76
2023/05/17 02:11:56;;;;;;;20.10;17.95;;;15.10;99.90;;;;;;5081304;28;20776;-72
2023/05/17 02:14:45;;;;;;;17.67;15.77;;;15.00;99.90;;;;;;5106257;27;20319;-74
2023/05/17 02:17:33;;;;;;;20.35;18.25;;;14.60;99.90;;;;;;5062595;28;20250;-73
2023/05/17 02:20:24;;;;;;;20.27;18.20;;;14.80;99.90;;;;;;5076563;28;20223;-76
2023/05/17 02:23:13;;;;;;;20.52;18.30;;;14.70;99.90;;;;;;5067112;28;20219;-74
2023/05/17 02:26:02;;;;;;;22.55;18.10;;;14.50;99.90;;;;;;5071270;28;20574;-73
2023/05/17 02:28:51;;;;;;;21.63;19.25;;;14.70;99.90;;;;;;5084939;28;20260;-72
2023/05/17 02:31:40;;;;;;;23.35;20.85;;;14.60;99.90;;;;;;5080787;28;20230;-73
2023/05/17 02:34:29;;;;;;;25.73;21.20;;;14.50;99.90;;;;;;5088613;27;20691;-74
2023/05/17 02:37:20;;;;;;;24.25;21.85;;;14.30;99.90;;;;;;5095046;28;20733;-74
2023/05/17 02:40:09;;;;;;;23.75;21.10;;;14.20;99.90;;;;;;5089979;28;20237;-73
2023/05/17 02:42:58;;;;;;;27.40;24.45;;;14.10;99.90;;;;;;5088789;28;20210;-74
2023/05/17 02:45:47;;;;;;;28.35;25.33;;;14.00;99.90;;;;;;5081526;28;20226;-80
2023/05/17 02:48:35;;;;;;;33.40;27.20;;;14.20;99.90;;;;;;5088818;28;20991;-81
2023/05/17 02:51:24;;;;;;;34.45;29.75;;;14.00;99.90;;;;;;5083683;28;20285;-80
2023/05/17 02:54:15;;;;;;;32.50;28.88;;;14.00;99.90;;;;;;5100239;28;20301;-82
2023/05/17 02:57:04;;;;;;;41.45;31.00;;;14.20;99.90;;;;;;5080268;28;20253;-84
2023/05/17 02:59:52;;;;;;;32.45;28.95;;;14.00;99.90;;;;;;5070228;28;20223;-71
2023/05/17 03:02:41;;;;;;;39.58;30.27;;;13.90;99.90;;;;;;5081647;28;20272;-72
2023/05/17 03:05:30;;;;;;;38.83;31.30;;;14.00;99.90;;;;;;5074598;28;20333;-71
2023/05/17 03:08:19;;;;;;;40.58;32.03;;;14.10;99.90;;;;;;5085318;28;20222;-72
2023/05/17 03:11:10;;;;;;;35.60;29.92;;;14.00;99.90;;;;;;5091126;28;20282;-72
2023/05/17 03:13:59;;;;;;;42.88;32.35;;;13.90;99.90;;;;;;5099456;28;20602;-71
2023/05/17 03:16:50;;;;;;;44.28;33.33;;;13.90;99.90;;;;;;5096161;28;20215;-73
2023/05/17 03:19:39;;;;;;;44.10;34.22;;;13.90;99.90;;;;;;5086986;28;20223;-73
2023/05/17 03:22:28;;;;;;;42.65;33.28;;;13.90;99.90;;;;;;5083751;28;21031;-71
2023/05/17 03:25:19;;;;;;;39.50;31.27;;;13.90;99.90;;;;;;5080371;28;20374;-72
2023/05/17 03:28:10;;;;;;;42.35;33.75;;;13.80;99.90;;;;;;5052763;28;20224;-72
2023/05/17 03:30:58;;;;;;;47.25;34.17;;;13.70;99.90;;;;;;5060918;28;20714;-77
2023/05/17 03:33:50;;;;;;;47.70;34.22;;;13.80;99.90;;;;;;5059325;28;20392;-76
2023/05/17 03:36:40;;;;;;;42.20;32.20;;;13.70;99.90;;;;;;5061445;28;20251;-77
2023/05/17 03:39:30;;;;;;;48.30;33.90;;;13.70;99.90;;;;;;5056903;28;20386;-77
2023/05/17 03:42:20;;;;;;;43.60;33.72;;;13.70;99.90;;;;;;5074047;28;20772;-76
2023/05/17 03:45:11;;;;;;;45.55;32.85;;;13.70;99.90;;;;;;5071275;28;20615;-76
2023/05/17 03:48:00;;;;;;;43.15;30.50;;;13.50;99.90;;;;;;5060418;28;20220;-76
2023/05/17 03:50:49;;;;;;;41.45;31.55;;;13.60;99.90;;;;;;5068824;28;20833;-74
2023/05/17 03:53:42;;;;;;;42.45;31.80;;;13.50;99.90;;;;;;5055441;28;20231;-74
2023/05/17 03:56:31;;;;;;;45.35;33.35;;;13.40;99.90;;;;;;5065647;28;20575;-75
2023/05/17 03:59:20;;;;;;;47.97;34.60;;;13.50;99.90;;;;;;5056022;28;20228;-74
2023/05/17 04:02:10;;;;;;;58.47;37.15;;;13.50;99.90;;;;;;5054767;28;20220;-75
2023/05/17 04:04:59;;;;;;;51.00;34.08;;;13.60;99.90;;;;;;5050737;28;20277;-75
2023/05/17 04:07:49;;;;;;;49.78;35.47;;;13.60;99.90;;;;;;5056486;28;20297;-74
2023/05/17 04:10:40;;;;;;;51.88;36.00;;;13.60;99.90;;;;;;5060882;28;20219;-75
2023/05/17 04:13:29;;;;;;;47.22;33.42;;;13.70;99.90;;;;;;5056690;28;20282;-74
2023/05/17 04:16:18;;;;;;;44.53;31.73;;;13.60;99.90;;;;;;5055451;28;20706;-73
2023/05/17 04:19:09;;;;;;;51.35;35.08;;;13.60;99.90;;;;;;5058057;28;20219;-72
2023/05/17 04:21:58;;;;;;;52.50;33.17;;;13.70;99.90;;;;;;5055543;28;20269;-72
2023/05/17 04:24:48;;;;;;;50.63;34.38;;;13.60;99.90;;;;;;5065828;28;20223;-73
2023/05/17 04:27:37;;;;;;;53.25;33.22;;;13.70;99.90;;;;;;5096009;27;20736;-73
2023/05/17 04:30:28;;;;;;;52.10;34.22;;;13.60;99.90;;;;;;5097590;27;20254;-74
2023/05/17 04:33:17;;;;;;;43.08;31.67;;;13.50;99.90;;;;;;5064767;28;20250;-77
2023/05/17 04:36:08;;;;;;;44.70;32.22;;;13.50;99.90;;;;;;5080340;28;20586;-73
2023/05/17 04:38:58;;;;;;;46.10;32.78;;;13.50;99.90;;;;;;5067683;28;20215;-71
2023/05/17 04:41:50;;;;;;;50.60;34.40;;;13.60;99.90;;;;;;5065172;28;20227;-71
2023/05/17 04:44:40;;;;;;;49.75;33.20;;;13.50;99.90;;;;;;5064317;28;20276;-71
2023/05/17 04:47:29;;;;;;;43.20;30.90;;;13.60;99.90;;;;;;5054378;28;20216;-71
2023/05/17 04:50:19;;;;;;;39.22;29.15;;;13.50;99.90;;;;;;5081740;28;20717;-71
2023/05/17 04:53:09;;;;;;;39.47;29.77;;;13.40;99.90;;;;;;5102688;28;20231;-71
2023/05/17 04:55:59;;;;;;;37.15;28.05;;;13.40;99.90;;;;;;5088136;28;20704;-77
2023/05/17 04:58:49;;;;;;;37.55;29.35;;;13.30;99.90;;;;;;5100978;27;20241;-75
2023/05/17 05:01:40;;;;;;;39.10;29.80;;;13.50;99.90;;;;;;5086192;28;20227;-72
2023/05/17 05:04:29;;;;;;;43.15;30.90;;;13.50;99.90;;;;;;5102893;27;20305;-70
2023/05/17 05:07:18;;;;;;;41.30;30.13;;;13.50;99.90;;;;;;5101802;27;20219;-71
2023/05/17 05:10:09;;;;;;;39.10;29.98;;;13.40;99.90;;;;;;5106590;27;20319;-73
2023/05/17 05:12:59;;;;;;;37.40;27.80;;;13.50;99.90;;;;;;5101450;28;20219;-74
2023/05/17 05:15:48;;;;;;;38.67;28.85;;;13.40;99.90;;;;;;5083197;28;20771;-73
2023/05/17 05:18:37;;;;;;;32.78;25.70;;;13.40;99.90;;;;;;5084544;28;20356;-73
2023/05/17 05:21:26;;;;;;;40.47;28.48;;;13.40;99.90;;;;;;5082427;27;20303;-76
2023/05/17 05:24:16;;;;;;;29.67;23.50;;;13.50;99.90;;;;;;5083282;28;20215;-74
2023/05/17 05:27:06;;;;;;;33.05;25.23;;;13.30;99.90;;;;;;5097040;28;20873;-74
2023/05/17 05:29:57;;;;;;;29.52;24.30;;;13.40;99.90;;;;;;5064583;28;20299;-72
2023/05/17 05:32:46;;;;;;;31.23;23.60;;;13.30;99.90;;;;;;5065416;28;20234;-72
2023/05/17 05:35:35;;;;;;;29.83;23.00;;;13.30;99.90;;;;;;5077377;28;20698;-79
2023/05/17 05:38:24;;;;;;;32.75;25.02;;;13.30;99.90;;;;;;5079916;28;20293;-74
2023/05/17 05:41:13;;;;;;;32.58;24.25;;;13.50;99.90;;;;;;5084787;28;20215;-77
2023/05/17 05:44:03;;;;;;;39.35;27.40;;;13.30;99.90;;;;;;5105525;28;20215;-72
2023/05/17 05:46:52;;;;;;;33.72;24.58;;;13.40;99.90;;;;;;5098580;27;20215;-73
2023/05/17 05:49:41;;;;;;;28.23;22.13;;;13.40;99.90;;;;;;5092130;28;20227;-68
2023/05/17 05:52:31;;;;;;;26.92;21.67;;;13.40;99.90;;;;;;5093854;28;20831;-71
2023/05/17 05:55:20;;;;;;;23.20;19.77;;;13.50;99.90;;;;;;5087231;28;20586;-71
2023/05/17 05:58:09;;;;;;;25.77;18.90;;;13.50;99.90;;;;;;5087990;28;20234;-73
2023/05/17 06:01:00;;;;;;;22.60;18.17;;;13.30;99.90;;;;;;5084686;28;20347;-76
2023/05/17 06:03:53;;;;;;;26.88;21.13;;;13.30;99.90;;;;;;5061658;28;20794;-83
2023/05/17 06:06:42;;;;;;;29.25;21.65;;;13.40;99.90;;;;;;5075696;28;20212;-79
2023/05/17 06:09:31;;;;;;;23.23;19.10;;;13.40;99.90;;;;;;5067807;28;20988;-82
2023/05/17 06:12:20;;;;;;;30.88;22.25;;;13.20;99.90;;;;;;5079278;28;20215;-78
2023/05/17 06:15:10;;;;;;;27.45;21.88;;;13.30;99.90;;;;;;5081362;28;20253;-80
2023/05/17 06:18:01;;;;;;;31.50;22.13;;;13.40;99.90;;;;;;5080859;28;20225;-79
2023/05/17 06:20:50;;;;;;;27.00;21.33;;;13.40;99.90;;;;;;5095854;28;20223;-81
2023/05/17 06:23:39;;;;;;;30.15;21.70;;;13.40;99.90;;;;;;5089317;28;20360;-78
2023/05/17 06:26:28;;;;;;;31.55;23.08;;;13.40;99.90;;;;;;5087587;28;20237;-80
2023/05/17 06:29:17;;;;;;;27.23;20.80;;;13.40;99.90;;;;;;5102399;28;20287;-82
2023/05/17 06:32:07;;;;;;;26.90;20.15;;;13.50;99.90;;;;;;5090225;28;20848;-83
2023/05/17 06:34:57;;;;;;;28.92;20.00;;;13.60;99.90;;;;;;5105106;27;20275;-83
2023/05/17 06:37:45;;;;;;;27.42;19.90;;;13.50;99.90;;;;;;5081575;28;20587;-81
2023/05/17 06:40:34;;;;;;;24.95;20.80;;;13.50;99.90;;;;;;5096957;28;20234;-85
2023/05/17 06:43:24;;;;;;;22.85;19.50;;;13.50;99.90;;;;;;5082879;28;20219;-83
2023/05/17 06:46:13;;;;;;;29.80;21.75;;;13.40;99.90;;;;;;5078473;28;20252;-74
2023/05/17 06:49:02;;;;;;;21.95;17.67;;;13.40;99.90;;;;;;5085883;28;20246;-78
2023/05/17 06:51:54;;;;;;;26.02;19.60;;;13.30;99.90;;;;;;5068863;28;20221;-77
2023/05/17 06:54:43;;;;;;;23.60;19.05;;;13.30;99.90;;;;;;5072388;28;20246;-79
2023/05/17 06:57:34;;;;;;;19.35;17.02;;;13.20;99.90;;;;;;5107697;28;20221;-78
2023/05/17 07:00:24;;;;;;;18.73;15.93;;;13.20;99.90;;;;;;5105864;28;20231;-84
2023/05/17 07:03:13;;;;;;;19.27;15.85;;;13.30;99.90;;;;;;5086621;28;20246;-85
2023/05/17 07:06:02;;;;;;;22.60;18.23;;;13.20;99.90;;;;;;5104588;28;20219;-80
2023/05/17 07:08:52;;;;;;;26.40;20.50;;;13.30;99.90;;;;;;5087205;28;20226;-74
2023/05/17 07:11:41;;;;;;;23.25;18.88;;;13.40;99.90;;;;;;5096060;28;20427;-84
2023/05/17 07:14:31;;;;;;;29.08;20.58;;;13.50;99.90;;;;;;5103417;28;20231;-79
2023/05/17 07:17:19;;;;;;;32.22;22.23;;;13.40;99.90;;;;;;5081293;28;20226;-80
2023/05/17 07:20:09;;;;;;;25.27;20.38;;;13.70;99.90;;;;;;5083650;28;20223;-81
2023/05/17 07:22:58;;;;;;;26.13;21.15;;;13.70;99.90;;;;;;5084075;28;20223;-79
2023/05/17 07:25:51;;;;;;;27.92;21.42;;;13.70;99.90;;;;;;5084311;28;20226;-79
2023/05/17 07:28:41;;;;;;;23.58;17.98;;;13.60;99.90;;;;;;5066425;28;20547;-82
2023/05/17 07:31:30;;;;;;;26.48;20.15;;;13.50;99.90;;;;;;5086086;27;20310;-82
2023/05/17 07:34:19;;;;;;;26.10;19.50;;;13.60;99.90;;;;;;5101859;28;20199;-80
2023/05/17 07:37:08;;;;;;;26.42;20.15;;;13.50;99.90;;;;;;5081122;28;20675;-82
2023/05/17 07:39:57;;;;;;;22.08;17.98;;;13.50;99.90;;;;;;5081198;28;20997;-81
2023/05/17 07:42:48;;;;;;;19.98;17.25;;;13.40;99.90;;;;;;5076905;28;20227;-78
2023/05/17 07:45:37;;;;;;;23.65;19.48;;;13.30;99.90;;;;;;5101570;28;20308;-83
2023/05/17 07:48:26;;;;;;;26.40;20.42;;;13.30;99.90;;;;;;5076860;28;20262;-83
2023/05/17 07:51:15;;;;;;;23.90;19.33;;;13.40;99.90;;;;;;5102118;28;21093;-83
2023/05/17 07:54:03;;;;;;;23.85;18.08;;;13.30;99.90;;;;;;5095292;28;20747;-84
2023/05/17 07:56:54;;;;;;;24.30;19.30;;;13.40;99.90;;;;;;5083507;28;20579;-76
2023/05/17 07:59:45;;;;;;;17.95;15.73;;;13.40;99.90;;;;;;5086684;28;20222;-75
2023/05/17 08:02:33;;;;;;;16.75;14.98;;;13.40;99.90;;;;;;5062464;28;20245;-73
2023/05/17 08:05:23;;;;;;;21.45;17.42;;;13.30;99.90;;;;;;5092140;28;20233;-76
2023/05/17 08:08:11;;;;;;;29.63;20.63;;;13.30;99.90;;;;;;5092154;28;20314;-75
2023/05/17 08:11:00;;;;;;;22.23;18.77;;;13.60;99.90;;;;;;5097071;28;20311;-81
2023/05/17 08:13:50;;;;;;;20.85;18.20;;;13.50;99.90;;;;;;5093192;28;20219;-81
2023/05/17 08:16:40;;;;;;;27.85;20.50;;;13.50;99.90;;;;;;5104173;28;20258;-82
2023/05/17 08:19:29;;;;;;;20.00;17.58;;;13.50;99.90;;;;;;5102794;28;20235;-81
2023/05/17 08:22:19;;;;;;;19.58;16.90;;;13.50;99.90;;;;;;5080208;28;20234;-81
2023/05/17 08:25:08;;;;;;;18.20;16.23;;;13.40;99.90;;;;;;5086189;28;20246;-82
2023/05/17 08:27:57;;;;;;;26.42;18.75;;;13.40;99.90;;;;;;5069260;28;20219;-79
2023/05/17 08:30:46;;;;;;;18.52;16.52;;;13.60;99.90;;;;;;5068444;28;20269;-83
2023/05/17 08:33:36;;;;;;;23.65;19.75;;;13.60;99.90;;;;;;5074319;28;20281;-82
2023/05/17 08:36:25;;;;;;;32.83;25.15;;;13.70;99.90;;;;;;5094565;28;20218;-80
2023/05/17 08:39:15;;;;;;;26.75;21.50;;;13.80;99.90;;;;;;5098334;28;20783;-81
2023/05/17 08:42:07;;;;;;;23.13;19.13;;;13.70;99.90;;;;;;5083477;28;20586;-80
2023/05/17 08:44:56;;;;;;;29.80;23.20;;;13.70;99.90;;;;;;5098459;28;20234;-81
2023/05/17 08:47:45;;;;;;;24.92;20.60;;;13.90;99.90;;;;;;5099428;28;20223;-78
2023/05/17 08:50:37;;;;;;;14.50;13.00;;;13.70;99.90;;;;;;5081666;28;20238;-78
2023/05/17 08:53:26;;;;;;;13.43;12.05;;;13.60;99.90;;;;;;5094342;28;20226;-79
2023/05/17 08:56:17;;;;;;;23.50;18.55;;;13.60;99.90;;;;;;5075330;28;20223;-79
2023/05/17 08:59:09;;;;;;;21.85;18.17;;;13.80;99.90;;;;;;5093110;28;20235;-79
2023/05/17 09:02:01;;;;;;;17.88;15.75;;;13.90;99.90;;;;;;5094915;28;20211;-79
2023/05/17 09:04:54;;;;;;;21.02;17.05;;;13.80;99.90;;;;;;5095720;28;20227;-79
2023/05/17 09:07:45;;;;;;;14.85;13.45;;;14.10;99.90;;;;;;5082830;28;20741;-78
2023/05/17 09:10:34;;;;;;;18.48;15.90;;;13.80;99.90;;;;;;5084758;28;20271;-78
2023/05/17 09:13:23;;;;;;;17.50;14.95;;;13.90;99.90;;;;;;5090190;27;20218;-80
2023/05/17 09:16:16;;;;;;;13.88;11.52;;;13.80;99.90;;;;;;5108713;27;20223;-79
2023/05/17 09:19:07;;;;;;;15.18;12.30;;;13.70;99.90;;;;;;5097827;27;20215;-77
2023/05/17 09:22:01;;;;;;;14.00;12.68;;;13.80;99.90;;;;;;5092585;28;20215;-80
2023/05/17 09:24:51;;;;;;;12.75;11.43;;;13.80;99.90;;;;;;5100280;27;20214;-80
2023/05/17 09:27:40;;;;;;;13.75;12.35;;;13.80;99.90;;;;;;5096686;28;20231;-79
2023/05/17 09:30:30;;;;;;;14.40;13.00;;;13.90;99.90;;;;;;5078215;28;20230;-78
2023/05/17 09:33:21;;;;;;;13.10;11.80;;;13.80;99.90;;;;;;5069116;28;20223;-80
2023/05/17 09:36:17;;;;;;;14.93;13.10;;;13.80;99.90;;;;;;5079504;28;20254;-78
2023/05/17 09:39:10;;;;;;;12.82;11.55;;;14.00;99.90;;;;;;5082122;28;20227;-79
2023/05/17 09:42:01;;;;;;;15.55;12.52;;;13.80;99.90;;;;;;5080468;28;20231;-79
2023/05/17 09:44:52;;;;;;;12.38;11.18;;;13.80;99.90;;;;;;5078710;28;20224;-80
2023/05/17 09:47:40;;;;;;;11.98;10.80;;;13.60;99.90;;;;;;5059057;28;20237;-80
2023/05/17 09:50:33;;;;;;;12.90;11.60;;;13.70;99.90;;;;;;5072828;28;21045;-79
2023/05/17 09:53:27;;;;;;;15.00;13.43;;;13.90;99.90;;;;;;5076828;28;20239;-77
2023/05/17 09:56:18;;;;;;;14.73;13.25;;;13.90;99.90;;;;;;5070200;28;20586;-80
2023/05/17 09:59:18;;;;;;;16.50;13.02;;;13.80;99.90;;;;;;5069061;28;20228;-80
2023/05/17 10:02:15;;;;;;;15.55;13.95;;;13.70;99.90;;;;;;5074043;28;20264;-79
2023/05/17 10:05:05;;;;;;;15.07;13.40;;;13.30;99.90;;;;;;5078078;28;20222;-77
2023/05/17 10:07:56;;;;;;;17.70;15.70;;;13.40;99.90;;;;;;5086067;28;20234;-80
2023/05/17 10:10:45;;;;;;;16.20;13.38;;;13.60;99.90;;;;;;5081111;28;20325;-78
2023/05/17 10:13:37;;;;;;;16.45;14.13;;;13.50;99.90;;;;;;5092911;28;20228;-77
2023/05/17 10:16:29;;;;;;;16.13;13.30;;;13.40;99.90;;;;;;5063667;28;20220;-79
2023/05/17 10:19:19;;;;;;;16.30;14.30;;;13.40;99.90;;;;;;5059768;28;20216;-74
2023/05/17 10:22:10;;;;;;;14.55;13.02;;;13.50;99.90;;;;;;5061681;28;20216;-73
2023/05/17 10:25:12;;;;;;;15.80;14.05;;;13.30;99.90;;;;;;5070699;28;20239;-75
2023/05/17 10:28:05;;;;;;;19.45;13.35;;;13.30;99.90;;;;;;5093766;27;20238;-74
2023/05/17 10:30:54;;;;;;;15.88;13.73;;;13.30;99.90;;;;;;5087060;28;20310;-77
2023/05/17 10:33:47;;;;;;;20.20;13.75;;;13.30;99.90;;;;;;5093377;28;20281;-75
2023/05/17 10:36:37;;;;;;;17.50;15.15;;;13.30;99.90;;;;;;5077832;28;20232;-75
2023/05/17 10:39:26;;;;;;;17.73;12.82;;;13.30;99.90;;;;;;5076942;28;20228;-74
2023/05/17 10:42:17;;;;;;;16.58;12.48;;;13.20;99.90;;;;;;5037242;28;20224;-74
2023/05/17 10:45:08;;;;;;;19.45;14.10;;;13.10;99.90;;;;;;5060970;28;20710;-73
2023/05/17 10:47:57;;;;;;;18.67;14.68;;;13.30;99.90;;;;;;5058763;28;20258;-74
2023/05/17 10:50:51;;;;;;;19.08;13.98;;;13.40;99.90;;;;;;5077103;28;20295;-73
2023/05/17 10:54:07;;;;;;;16.27;13.40;;;13.60;99.90;;;;;;5080638;28;20231;-73
2023/05/17 10:57:03;;;;;;;22.55;12.85;;;13.70;99.90;;;;;;5076541;28;20353;-74
2023/05/17 10:59:58;;;;;;;18.80;13.13;;;13.60;99.90;;;;;;5076824;28;20236;-73
2023/05/17 11:02:49;;;;;;;16.63;12.23;;;13.60;99.90;;;;;;5077671;28;20272;-74
2023/05/17 11:05:42;;;;;;;18.60;11.95;;;13.60;99.90;;;;;;5078566;28;20228;-73
2023/05/17 11:08:33;;;;;;;24.00;14.52;;;13.50;99.90;;;;;;5075456;28;20232;-75
2023/05/17 11:11:24;;;;;;;25.20;16.67;;;13.40;99.90;;;;;;5076781;28;20816;-75
2023/05/17 11:14:15;;;;;;;21.40;14.65;;;13.60;99.90;;;;;;5058177;28;20231;-74
2023/05/17 11:17:13;;;;;;;21.52;16.60;;;13.60;99.90;;;;;;5081023;28;20218;-75
2023/05/17 11:20:09;;;;;;;29.75;17.92;;;13.70;99.90;;;;;;5089703;27;20310;-74
2023/05/17 11:23:34;;;;;;;29.83;18.65;;;13.80;99.90;;;;;;5053849;28;20300;-74
2023/05/17 11:26:33;;;;;;;31.13;19.23;;;13.70;99.90;;;;;;5053062;28;20314;-74
2023/05/17 11:29:29;;;;;;;28.02;18.77;;;13.60;99.90;;;;;;5056453;28;20220;-75
2023/05/17 11:32:18;;;;;;;19.95;14.02;;;13.50;99.90;;;;;;5079706;28;20233;-76
2023/05/17 11:35:11;;;;;;;24.30;14.57;;;13.10;99.90;;;;;;5061412;28;20805;-75
2023/05/17 11:38:14;;;;;;;23.52;15.70;;;13.10;99.90;;;;;;5071113;28;20219;-75
2023/05/17 11:41:20;;;;;;;22.20;14.95;;;13.10;99.90;;;;;;5081307;28;20215;-73
2023/05/17 11:44:13;;;;;;;17.30;11.73;;;13.20;99.90;;;;;;5060691;28;20216;-75
2023/05/17 11:47:03;;;;;;;20.90;12.77;;;13.10;99.90;;;;;;5057275;28;20220;-74
2023/05/17 11:49:53;;;;;;;20.40;12.30;;;13.00;99.90;;;;;;5055997;28;20617;-74
2023/05/17 11:52:44;;;;;;;27.65;13.55;;;13.00;99.90;;;;;;5055414;28;20331;-76
2023/05/17 11:55:34;;;;;;;20.85;12.68;;;13.00;99.90;;;;;;5040874;28;20228;-74
2023/05/17 11:58:28;;;;;;;19.77;14.40;;;13.00;99.90;;;;;;5070078;28;20223;-74
2023/05/17 12:01:16;;;;;;;25.08;14.77;;;13.30;99.90;;;;;;5062417;28;20227;-76
2023/05/17 12:04:05;;;;;;;22.83;13.68;;;13.40;99.90;;;;;;5082783;28;20223;-73
2023/05/17 12:06:55;;;;;;;18.63;12.07;;;13.50;99.90;;;;;;5061907;28;20247;-74
2023/05/17 12:09:45;;;;;;;19.25;11.23;;;13.50;99.90;;;;;;5071776;28;20298;-73
2023/05/17 12:12:33;;;;;;;22.85;13.40;;;13.30;99.90;;;;;;5074036;28;20540;-75
2023/05/17 12:15:24;;;;;;;18.15;13.05;;;13.40;99.90;;;;;;5058648;28;20224;-74
2023/05/17 12:18:13;;;;;;;19.13;13.05;;;13.30;99.90;;;;;;5069079;28;20613;-77
2023/05/17 12:21:03;;;;;;;22.00;13.95;;;13.20;99.90;;;;;;5079995;28;20223;-77
2023/05/17 12:23:52;;;;;;;27.65;16.30;;;13.30;99.90;;;;;;5074527;28;20592;-76
2023/05/17 12:26:43;;;;;;;30.85;19.30;;;13.20;99.90;;;;;;5077508;28;20243;-74
2023/05/17 12:29:33;;;;;;;25.15;19.17;;;13.20;99.90;;;;;;5067132;28;20235;-71
2023/05/17 12:32:24;;;;;;;29.63;21.63;;;13.20;99.90;;;;;;5077318;28;20785;-69
2023/05/17 12:35:13;;;;;;;32.33;22.23;;;13.20;99.90;;;;;;5083297;28;20227;-68
2023/05/17 12:38:03;;;;;;;31.52;22.23;;;13.30;99.90;;;;;;5093832;28;20316;-70
2023/05/17 12:40:52;;;;;;;29.33;19.40;;;13.30;99.90;;;;;;5079858;28;20679;-71
2023/05/17 12:43:43;;;;;;;31.85;20.73;;;13.20;99.90;;;;;;5073223;28;20224;-71
2023/05/17 12:46:32;;;;;;;31.77;19.83;;;13.30;99.90;;;;;;5073688;28;20625;-71
2023/05/17 12:49:22;;;;;;;31.45;22.40;;;13.30;99.90;;;;;;5071706;28;20239;-70
2023/05/17 12:52:12;;;;;;;39.85;23.23;;;13.40;99.90;;;;;;5077196;28;20705;-75
2023/05/17 12:55:03;;;;;;;37.88;23.38;;;13.20;99.90;;;;;;5091033;28;20215;-73
2023/05/17 12:57:54;;;;;;;40.10;25.50;;;13.30;99.90;;;;;;5083355;28;20227;-75
2023/05/17 13:00:57;;;;;;;40.85;26.77;;;13.40;99.90;;;;;;5082523;28;20734;-76
2023/05/17 13:03:51;;;;;;;41.83;27.65;;;13.30;99.90;;;;;;5082985;28;20777;-72
2023/05/17 13:06:49;;;;;;;39.67;27.38;;;13.40;99.90;;;;;;5083622;28;20721;-76
2023/05/17 13:09:47;;;;;;;49.38;29.48;;;13.50;99.90;;;;;;5078825;28;20723;-75
2023/05/17 13:12:39;;;;;;;42.95;28.95;;;13.40;99.90;;;;;;5083469;27;20224;-75
2023/05/17 13:15:32;;;;;;;41.50;26.58;;;13.50;99.90;;;;;;5085349;28;20227;-81
2023/05/17 13:18:23;;;;;;;43.60;29.63;;;13.30;99.90;;;;;;5084763;28;20216;-74
2023/05/17 13:21:12;;;;;;;48.30;30.10;;;13.40;99.90;;;;;;5084323;28;20354;-79
2023/05/17 13:24:02;;;;;;;45.72;28.52;;;13.50;99.90;;;;;;5087993;28;20261;-73
2023/05/17 13:26:51;;;;;;;48.97;29.65;;;13.40;99.90;;;;;;5083572;28;20241;-79
2023/05/17 13:29:41;;;;;;;41.42;29.13;;;13.40;99.90;;;;;;5069935;28;20353;-75
2023/05/17 13:32:31;;;;;;;37.05;26.60;;;13.40;99.90;;;;;;5064131;28;20927;-75
2023/05/17 13:35:20;;;;;;;36.88;22.30;;;13.40;99.90;;;;;;5087003;28;20369;-75
2023/05/17 13:38:09;;;;;;;43.35;25.30;;;13.30;99.90;;;;;;5082403;28;20280;-76
2023/05/17 13:40:59;;;;;;;40.60;26.55;;;13.40;99.90;;;;;;5076842;28;20227;-76
2023/05/17 13:43:49;;;;;;;36.58;23.05;;;13.50;99.90;;;;;;5081973;28;20227;-75
2023/05/17 13:46:38;;;;;;;34.30;21.85;;;13.50;99.90;;;;;;5080596;28;20231;-75
2023/05/17 13:49:27;;;;;;;41.28;24.25;;;13.50;99.90;;;;;;5081361;28;20219;-76
2023/05/17 13:52:17;;;;;;;38.63;24.58;;;13.90;99.90;;;;;;5053757;28;20280;-76
2023/05/17 13:55:07;;;;;;;39.88;24.95;;;14.20;99.90;;;;;;5077981;28;20223;-76
2023/05/17 13:57:57;;;;;;;33.83;20.65;;;14.30;99.90;;;;;;5076850;28;20325;-85
2023/05/17 14:00:47;;;;;;;30.15;21.13;;;14.10;99.90;;;;;;5076773;28;20238;-74
2023/05/17 14:03:39;;;;;;;31.63;22.05;;;13.80;99.90;;;;;;5079488;28;21123;-75
2023/05/17 14:06:28;;;;;;;35.30;23.58;;;13.80;99.90;;;;;;5079806;28;20219;-76
2023/05/17 14:09:17;;;;;;;29.75;20.88;;;13.90;99.90;;;;;;5075804;28;20352;-74
2023/05/17 14:12:07;;;;;;;31.50;22.20;;;13.90;99.90;;;;;;5083483;28;20223;-74
2023/05/17 14:14:57;;;;;;;27.20;18.83;;;13.90;99.90;;;;;;5083526;28;20234;-73
2023/05/17 14:17:46;;;;;;;30.05;20.63;;;13.60;99.90;;;;;;5082597;28;20262;-74
2023/05/17 14:20:35;;;;;;;31.13;20.05;;;13.70;99.90;;;;;;5083072;28;20231;-75
2023/05/17 14:23:24;;;;;;;30.15;20.63;;;13.60;99.90;;;;;;5074026;28;20228;-73
2023/05/17 14:26:14;;;;;;;25.95;18.67;;;13.50;99.90;;;;;;5078103;28;20226;-72